Time;durP1;ratioP1;P1;durP2;ratioP2;P2;SDS_P1;SDS_P2;PMS_P1;PMS_P2;Temp;Humidity;BMP_temperature;BMP_pressure;BME280_temperature;BME280_humidity;BME280_pressure;Samples;Min_cycle;Max_cycle;Signal;HPM_P1;HPM_P2
2023/06/23 00:01:22;;;;;;;2.38;1.52;;;;;;;;;;4968633;28;20054;-75
2023/06/23 00:03:54;;;;;;;2.85;1.50;;;;;;;;;;4968982;28;20516;-75
2023/06/23 00:06:26;;;;;;;1.60;1.40;;;;;;;;;;4968533;28;20514;-75
2023/06/23 00:08:56;;;;;;;5.07;1.90;;;;;;;;;;4968892;28;20047;-75
2023/06/23 00:11:28;;;;;;;2.00;1.80;;;;;;;;;;4968873;28;20429;-75
2023/06/23 00:13:59;;;;;;;1.67;1.50;;;;;;;;;;4967620;28;20058;-75
2023/06/23 00:16:30;;;;;;;3.42;1.50;;;;;;;;;;4968598;28;20054;-75
2023/06/23 00:19:01;;;;;;;3.60;1.63;;;;;;;;;;4968286;28;20046;-74
2023/06/23 00:21:31;;;;;;;1.90;1.67;;;;;;;;;;4968843;28;20512;-76
2023/06/23 00:24:02;;;;;;;3.17;2.17;;;;;;;;;;4968664;28;20062;-75
2023/06/23 00:26:34;;;;;;;3.28;2.22;;;;;;;;;;4966621;28;20054;-75
2023/06/23 00:29:07;;;;;;;5.60;2.00;;;;;;;;;;4966294;28;20062;-76
2023/06/23 00:31:38;;;;;;;4.45;2.05;;;;;;;;;;4968289;28;20050;-76
2023/06/23 00:34:09;;;;;;;2.50;1.92;;;;;;;;;;4968323;28;20050;-76
2023/06/23 00:36:40;;;;;;;3.45;1.85;;;;;;;;;;4968513;28;20419;-76
2023/06/23 00:39:09;;;;;;;4.22;1.75;;;;;;;;;;4967920;28;20054;-76
2023/06/23 00:41:40;;;;;;;2.22;1.55;;;;;;;;;;4968754;28;20055;-76
2023/06/23 00:44:11;;;;;;;3.22;1.83;;;;;;;;;;4968159;28;20054;-76
2023/06/23 00:46:44;;;;;;;1.95;1.70;;;;;;;;;;4968514;28;20536;-76
2023/06/23 00:49:15;;;;;;;4.03;2.00;;;;;;;;;;4969389;28;20051;-76
2023/06/23 00:51:46;;;;;;;2.55;1.65;;;;;;;;;;4987180;28;20061;-76
2023/06/23 00:54:16;;;;;;;1.65;1.55;;;;;;;;;;4970268;28;20506;-76
2023/06/23 00:56:49;;;;;;;4.03;1.88;;;;;;;;;;4987356;28;20054;-76
2023/06/23 00:59:21;;;;;;;3.90;1.70;;;;;;;;;;4969780;28;20057;-76
2023/06/23 01:01:52;;;;;;;3.13;1.70;;;;;;;;;;4986772;28;20057;-76
2023/06/23 01:04:24;;;;;;;3.10;1.95;;;;;;;;;;4987511;28;20520;-76
2023/06/23 01:07:17;;;;;;;3.55;2.40;;;;;;;;;;4986901;28;20086;-76
2023/06/23 01:10:02;;;;;;;2.30;1.67;;;;;;;;;;4961059;28;20051;-76
2023/06/23 01:12:53;;;;;;;6.25;1.95;;;;;;;;;;4968240;28;20394;-76
2023/06/23 01:15:57;;;;;;;2.08;1.63;;;;;;;;;;4983783;28;20042;-77
2023/06/23 01:18:34;;;;;;;5.07;1.73;;;;;;;;;;4980140;28;20589;-76
2023/06/23 01:21:10;;;;;;;2.78;1.85;;;;;;;;;;4984418;28;20077;-76
2023/06/23 01:24:11;;;;;;;4.95;2.15;;;;;;;;;;4984868;28;20050;-77
2023/06/23 01:27:13;;;;;;;4.57;1.73;;;;;;;;;;4984293;28;20050;-76
2023/06/23 01:29:47;;;;;;;4.07;2.08;;;;;;;;;;4985004;28;20049;-75
2023/06/23 01:32:27;;;;;;;1.50;1.38;;;;;;;;;;4987037;28;20505;-76
2023/06/23 01:35:07;;;;;;;7.05;2.30;;;;;;;;;;4986328;28;20042;-76
2023/06/23 01:37:41;;;;;;;3.25;2.10;;;;;;;;;;4986526;28;20054;-76
2023/06/23 01:40:18;;;;;;;2.55;1.80;;;;;;;;;;4986760;28;20592;-76
2023/06/23 01:42:57;;;;;;;4.47;1.73;;;;;;;;;;4968549;28;20073;-76
2023/06/23 01:45:28;;;;;;;2.03;1.50;;;;;;;;;;4986597;28;20046;-76
2023/06/23 01:48:03;;;;;;;4.72;2.22;;;;;;;;;;4986822;28;20065;-77
2023/06/23 01:50:37;;;;;;;5.07;1.90;;;;;;;;;;4969060;28;20061;-76
2023/06/23 01:53:10;;;;;;;3.88;2.15;;;;;;;;;;4968800;28;20058;-76
2023/06/23 01:55:41;;;;;;;2.33;1.80;;;;;;;;;;4986604;28;20046;-75
2023/06/23 01:58:13;;;;;;;2.22;1.90;;;;;;;;;;4967644;28;20543;-76
2023/06/23 02:00:45;;;;;;;4.15;2.10;;;;;;;;;;4968803;28;20057;-75
2023/06/23 02:03:17;;;;;;;3.30;2.20;;;;;;;;;;4973260;28;20065;-75
2023/06/23 02:05:51;;;;;;;6.90;2.70;;;;;;;;;;4986905;28;20046;-74
2023/06/23 02:08:23;;;;;;;4.93;1.60;;;;;;;;;;4968507;28;20525;-80
2023/06/23 02:10:57;;;;;;;6.15;2.50;;;;;;;;;;4986550;28;20084;-74
2023/06/23 02:13:29;;;;;;;6.13;1.90;;;;;;;;;;4986101;28;20525;-74
2023/06/23 02:16:06;;;;;;;3.92;1.70;;;;;;;;;;4986157;28;20043;-75
2023/06/23 02:18:38;;;;;;;3.33;1.80;;;;;;;;;;4986625;28;20058;-75
2023/06/23 02:21:11;;;;;;;2.00;1.73;;;;;;;;;;4985647;28;20046;-75
2023/06/23 02:23:41;;;;;;;3.00;1.52;;;;;;;;;;4986610;28;20057;-75
2023/06/23 02:26:15;;;;;;;1.48;1.38;;;;;;;;;;4968350;28;20069;-75
2023/06/23 02:28:49;;;;;;;4.63;1.65;;;;;;;;;;4985848;28;20077;-75
2023/06/23 02:31:25;;;;;;;4.72;1.52;;;;;;;;;;4985625;28;20053;-75
2023/06/23 02:33:56;;;;;;;3.17;1.63;;;;;;;;;;4985701;28;20046;-75
2023/06/23 02:36:35;;;;;;;4.43;1.90;;;;;;;;;;4985914;28;20058;-75
2023/06/23 02:39:07;;;;;;;3.95;1.92;;;;;;;;;;4986307;28;20042;-75
2023/06/23 02:41:41;;;;;;;2.20;1.63;;;;;;;;;;4985663;28;20524;-75
2023/06/23 02:44:17;;;;;;;3.00;2.20;;;;;;;;;;4985916;28;20406;-75
2023/06/23 02:46:56;;;;;;;2.22;1.63;;;;;;;;;;4985818;28;20050;-74
2023/06/23 02:49:30;;;;;;;1.83;1.58;;;;;;;;;;4967665;28;20054;-75
2023/06/23 02:52:04;;;;;;;1.75;1.50;;;;;;;;;;4985813;28;20050;-75
2023/06/23 02:54:40;;;;;;;2.35;2.00;;;;;;;;;;4985381;28;20435;-75
2023/06/23 02:57:15;;;;;;;2.35;1.77;;;;;;;;;;4967930;28;20046;-75
2023/06/23 02:59:51;;;;;;;3.85;1.70;;;;;;;;;;4967907;28;20061;-75
2023/06/23 03:02:24;;;;;;;4.30;1.77;;;;;;;;;;4968378;28;20047;-74
2023/06/23 03:04:57;;;;;;;2.38;1.85;;;;;;;;;;4985485;28;20472;-76
2023/06/23 03:07:29;;;;;;;2.58;1.83;;;;;;;;;;4985676;28;20520;-75
2023/06/23 03:10:00;;;;;;;6.07;1.70;;;;;;;;;;4985776;28;20050;-75
2023/06/23 03:12:30;;;;;;;2.53;1.90;;;;;;;;;;4985779;28;20042;-75
2023/06/23 03:15:05;;;;;;;2.95;1.80;;;;;;;;;;4985445;28;20062;-75
2023/06/23 03:17:39;;;;;;;5.95;2.03;;;;;;;;;;4985609;28;20054;-74
2023/06/23 03:20:32;;;;;;;2.00;1.80;;;;;;;;;;4967503;28;20050;-74
2023/06/23 03:23:07;;;;;;;2.75;1.90;;;;;;;;;;4967751;28;20050;-74
2023/06/23 03:25:40;;;;;;;3.25;1.67;;;;;;;;;;4966937;28;20050;-74
2023/06/23 03:28:16;;;;;;;2.20;1.60;;;;;;;;;;4967326;28;20050;-74
2023/06/23 03:30:59;;;;;;;2.08;1.70;;;;;;;;;;4966207;28;20054;-75
2023/06/23 03:33:40;;;;;;;4.20;1.77;;;;;;;;;;4966126;28;20398;-74
2023/06/23 03:36:33;;;;;;;1.98;1.48;;;;;;;;;;4967534;28;20046;-75
2023/06/23 03:39:23;;;;;;;2.28;1.52;;;;;;;;;;4984115;28;20540;-74
2023/06/23 03:41:55;;;;;;;1.88;1.38;;;;;;;;;;4985932;28;20046;-75
2023/06/23 03:44:49;;;;;;;1.92;1.73;;;;;;;;;;4985044;28;20050;-75
2023/06/23 03:47:23;;;;;;;4.78;1.90;;;;;;;;;;4985338;28;20050;-74
2023/06/23 03:50:03;;;;;;;4.13;1.75;;;;;;;;;;4985087;28;20046;-75
2023/06/23 03:52:34;;;;;;;7.57;1.67;;;;;;;;;;4985226;28;20073;-75
2023/06/23 03:55:10;;;;;;;2.78;1.98;;;;;;;;;;4971525;28;20390;-75
2023/06/23 03:57:43;;;;;;;2.60;1.80;;;;;;;;;;4988787;28;20049;-75
2023/06/23 04:00:17;;;;;;;2.40;1.92;;;;;;;;;;4988431;28;20050;-75
2023/06/23 04:02:51;;;;;;;2.33;2.13;;;;;;;;;;4990476;28;20441;-74
2023/06/23 04:05:23;;;;;;;2.03;1.65;;;;;;;;;;4988393;28;20076;-75
2023/06/23 04:07:56;;;;;;;2.50;1.70;;;;;;;;;;4988362;28;20053;-75
2023/06/23 04:10:29;;;;;;;2.35;1.73;;;;;;;;;;4988181;28;20042;-75
2023/06/23 04:13:01;;;;;;;2.60;2.00;;;;;;;;;;4988242;28;20054;-74
2023/06/23 04:15:36;;;;;;;2.80;2.00;;;;;;;;;;4988178;28;20636;-75
2023/06/23 04:18:08;;;;;;;3.78;1.80;;;;;;;;;;4988279;28;20046;-75
2023/06/23 04:20:40;;;;;;;2.55;2.10;;;;;;;;;;4988981;28;20054;-75
2023/06/23 04:23:12;;;;;;;3.85;1.75;;;;;;;;;;4988111;28;20051;-75
2023/06/23 04:25:46;;;;;;;3.17;1.75;;;;;;;;;;4988023;28;20101;-74
2023/06/23 04:28:22;;;;;;;2.25;1.80;;;;;;;;;;4970005;28;20050;-76
2023/06/23 04:30:54;;;;;;;3.10;2.33;;;;;;;;;;4987854;28;20055;-75
2023/06/23 04:33:26;;;;;;;3.70;2.00;;;;;;;;;;4988146;28;20506;-75
2023/06/23 04:36:04;;;;;;;2.92;1.90;;;;;;;;;;4987999;28;20042;-74
2023/06/23 04:38:37;;;;;;;3.33;1.63;;;;;;;;;;4987678;28;20513;-75
2023/06/23 04:41:12;;;;;;;3.10;1.95;;;;;;;;;;4987627;28;20053;-75
2023/06/23 04:43:46;;;;;;;4.28;2.20;;;;;;;;;;4987368;28;20050;-75
2023/06/23 04:46:24;;;;;;;2.08;1.83;;;;;;;;;;4987712;28;20042;-75
2023/06/23 04:48:59;;;;;;;9.20;2.00;;;;;;;;;;4987501;28;20054;-74
2023/06/23 04:51:35;;;;;;;2.65;2.10;;;;;;;;;;4987837;28;20050;-75
2023/06/23 04:54:18;;;;;;;2.38;1.80;;;;;;;;;;4987755;28;20050;-75
2023/06/23 04:57:00;;;;;;;2.55;2.03;;;;;;;;;;4987642;28;20528;-75
2023/06/23 04:59:39;;;;;;;3.13;2.25;;;;;;;;;;4987359;28;20058;-75
2023/06/23 05:02:13;;;;;;;4.45;2.45;;;;;;;;;;4969210;28;20417;-74
2023/06/23 05:04:44;;;;;;;3.33;2.20;;;;;;;;;;4987146;28;20065;-75
2023/06/23 05:07:17;;;;;;;8.13;2.38;;;;;;;;;;4987364;28;20540;-74
2023/06/23 05:09:50;;;;;;;4.05;2.53;;;;;;;;;;4987597;28;20050;-75
2023/06/23 05:12:24;;;;;;;5.95;2.13;;;;;;;;;;4987282;28;20065;-75
2023/06/23 05:14:56;;;;;;;2.97;2.17;;;;;;;;;;4987288;28;20065;-75
2023/06/23 05:17:28;;;;;;;3.13;2.28;;;;;;;;;;4987016;28;20042;-75
2023/06/23 05:20:01;;;;;;;3.33;2.40;;;;;;;;;;4969339;28;20061;-75
2023/06/23 05:22:33;;;;;;;3.33;2.60;;;;;;;;;;4986860;28;20078;-74
2023/06/23 05:25:06;;;;;;;6.15;2.83;;;;;;;;;;4987480;28;20402;-75
2023/06/23 05:27:45;;;;;;;4.43;2.55;;;;;;;;;;4987540;28;20050;-75
2023/06/23 05:30:19;;;;;;;7.32;2.55;;;;;;;;;;4987138;28;20042;-74
2023/06/23 05:32:52;;;;;;;5.60;2.35;;;;;;;;;;4986291;28;20053;-75
2023/06/23 05:35:25;;;;;;;2.97;2.10;;;;;;;;;;4986827;28;20050;-75
2023/06/23 05:37:56;;;;;;;5.40;2.10;;;;;;;;;;4986837;28;20502;-75
2023/06/23 05:40:27;;;;;;;4.43;2.33;;;;;;;;;;4986717;28;20109;-75
2023/06/23 05:42:58;;;;;;;4.90;2.40;;;;;;;;;;4987201;28;20053;-75
2023/06/23 05:45:28;;;;;;;4.68;2.38;;;;;;;;;;4986456;28;20050;-74
2023/06/23 05:48:30;;;;;;;3.40;2.15;;;;;;;;;;4986568;28;20073;-75
2023/06/23 05:51:04;;;;;;;3.10;2.13;;;;;;;;;;4986103;28;20057;-75
2023/06/23 05:53:38;;;;;;;2.97;2.05;;;;;;;;;;4986481;28;20061;-75
2023/06/23 05:56:35;;;;;;;2.65;1.92;;;;;;;;;;4987016;28;20050;-75
2023/06/23 05:59:16;;;;;;;2.75;2.28;;;;;;;;;;4980136;28;20081;-75
2023/06/23 06:01:52;;;;;;;4.13;2.00;;;;;;;;;;4986507;28;20069;-75
2023/06/23 06:04:26;;;;;;;4.38;2.28;;;;;;;;;;4968572;28;20540;-75
2023/06/23 06:06:59;;;;;;;3.35;2.20;;;;;;;;;;4986274;28;20046;-74
2023/06/23 06:09:33;;;;;;;6.07;2.10;;;;;;;;;;4986235;28;20050;-75
2023/06/23 06:12:04;;;;;;;5.40;2.53;;;;;;;;;;4985882;28;20046;-75
2023/06/23 06:14:37;;;;;;;5.78;2.75;;;;;;;;;;4986201;28;20409;-75
2023/06/23 06:17:10;;;;;;;2.90;2.10;;;;;;;;;;4969036;28;20058;-75
2023/06/23 06:19:42;;;;;;;7.43;2.20;;;;;;;;;;4986204;28;20061;-75
2023/06/23 06:22:14;;;;;;;2.60;2.10;;;;;;;;;;4986318;28;20050;-75
2023/06/23 06:24:46;;;;;;;6.78;2.47;;;;;;;;;;4986344;28;20065;-75
2023/06/23 06:27:17;;;;;;;4.50;2.35;;;;;;;;;;4985553;28;20065;-75
2023/06/23 06:29:49;;;;;;;3.88;2.03;;;;;;;;;;4985867;28;20046;-74
2023/06/23 06:32:21;;;;;;;3.42;1.98;;;;;;;;;;4986468;28;20038;-75
2023/06/23 06:34:53;;;;;;;5.78;2.60;;;;;;;;;;4985826;28;20072;-75
2023/06/23 06:37:26;;;;;;;3.50;2.33;;;;;;;;;;4985520;28;20536;-75
2023/06/23 06:39:59;;;;;;;3.55;2.28;;;;;;;;;;4985643;28;20493;-75
2023/06/23 06:42:31;;;;;;;3.10;2.10;;;;;;;;;;4985841;28;20050;-75
2023/06/23 06:45:01;;;;;;;4.43;2.08;;;;;;;;;;4985984;28;20055;-75
2023/06/23 06:47:40;;;;;;;5.07;2.22;;;;;;;;;;4985563;28;20053;-75
2023/06/23 06:50:14;;;;;;;4.90;1.98;;;;;;;;;;4986121;28;20069;-75
2023/06/23 06:52:46;;;;;;;5.05;2.25;;;;;;;;;;4985924;28;20058;-74
2023/06/23 06:55:21;;;;;;;5.07;2.80;;;;;;;;;;4984865;28;20394;-75
2023/06/23 06:57:52;;;;;;;6.68;3.35;;;;;;;;;;4985564;28;20054;-74
2023/06/23 07:00:25;;;;;;;5.03;2.70;;;;;;;;;;4985263;28;20058;-75
2023/06/23 07:02:59;;;;;;;5.30;2.70;;;;;;;;;;4985944;28;20054;-75
2023/06/23 07:05:29;;;;;;;4.53;3.38;;;;;;;;;;4986283;28;20390;-75
2023/06/23 07:08:00;;;;;;;5.55;2.88;;;;;;;;;;4985694;28;20050;-75
2023/06/23 07:10:31;;;;;;;4.18;2.42;;;;;;;;;;4985355;28;20050;-75
2023/06/23 07:13:03;;;;;;;9.35;2.90;;;;;;;;;;4984956;28;20039;-75
2023/06/23 07:15:33;;;;;;;4.47;2.28;;;;;;;;;;4985952;28;20067;-75
2023/06/23 07:18:04;;;;;;;6.95;2.50;;;;;;;;;;4984940;28;20053;-75
2023/06/23 07:20:35;;;;;;;3.72;2.47;;;;;;;;;;4985575;28;20050;-75
2023/06/23 07:23:05;;;;;;;5.78;2.40;;;;;;;;;;4985044;28;20050;-75
2023/06/23 07:25:35;;;;;;;4.07;2.75;;;;;;;;;;4985583;28;20057;-75
2023/06/23 07:28:05;;;;;;;6.75;2.42;;;;;;;;;;4985988;28;20053;-75
2023/06/23 07:30:37;;;;;;;5.10;2.25;;;;;;;;;;4988701;28;20046;-75
2023/06/23 07:33:08;;;;;;;4.50;2.80;;;;;;;;;;4988989;28;20050;-76
2023/06/23 07:35:38;;;;;;;5.50;2.88;;;;;;;;;;4988613;28;20042;-75
2023/06/23 07:38:09;;;;;;;3.10;2.53;;;;;;;;;;4971280;28;20046;-75
2023/06/23 07:40:39;;;;;;;3.75;2.30;;;;;;;;;;4988117;28;20046;-75
2023/06/23 07:43:13;;;;;;;5.70;2.40;;;;;;;;;;4988641;28;20050;-75
2023/06/23 07:45:43;;;;;;;3.35;2.30;;;;;;;;;;4989022;28;20105;-75
2023/06/23 07:48:12;;;;;;;6.85;2.20;;;;;;;;;;4988980;28;20046;-75
2023/06/23 07:50:43;;;;;;;4.53;2.85;;;;;;;;;;4988399;28;20054;-75
2023/06/23 07:53:14;;;;;;;5.43;2.38;;;;;;;;;;4987733;28;20046;-75
2023/06/23 07:55:45;;;;;;;5.50;2.55;;;;;;;;;;4988828;28;20052;-75
2023/06/23 07:58:15;;;;;;;12.27;3.70;;;;;;;;;;4988182;28;20046;-74
2023/06/23 08:00:46;;;;;;;10.50;4.68;;;;;;;;;;4987750;28;20402;-75
2023/06/23 08:03:17;;;;;;;6.40;3.88;;;;;;;;;;4987970;28;20046;-75
2023/06/23 08:05:47;;;;;;;12.80;4.20;;;;;;;;;;4971390;28;20069;-75
2023/06/23 08:08:18;;;;;;;10.68;4.88;;;;;;;;;;4988249;28;20054;-74
2023/06/23 08:10:49;;;;;;;8.85;4.38;;;;;;;;;;4987340;28;20053;-75
2023/06/23 08:13:20;;;;;;;8.27;4.70;;;;;;;;;;4987852;28;20077;-74
2023/06/23 08:15:50;;;;;;;11.68;4.47;;;;;;;;;;4988135;28;20413;-75
2023/06/23 08:18:20;;;;;;;7.90;4.47;;;;;;;;;;4987749;28;20057;-75
2023/06/23 08:20:53;;;;;;;11.80;4.95;;;;;;;;;;4987730;28;20054;-75
2023/06/23 08:23:23;;;;;;;9.73;4.68;;;;;;;;;;4988148;28;20046;-75
2023/06/23 08:25:53;;;;;;;13.07;4.82;;;;;;;;;;4987926;28;20501;-75
2023/06/23 08:28:24;;;;;;;8.75;4.80;;;;;;;;;;4987751;28;20049;-75
2023/06/23 08:30:55;;;;;;;11.07;5.65;;;;;;;;;;4969358;28;20433;-75
2023/06/23 08:33:26;;;;;;;8.35;4.75;;;;;;;;;;4988274;28;20046;-74
2023/06/23 08:35:57;;;;;;;14.40;6.35;;;;;;;;;;4969814;28;20050;-75
2023/06/23 08:38:27;;;;;;;11.75;5.85;;;;;;;;;;4987502;28;20046;-75
2023/06/23 08:40:58;;;;;;;8.68;5.38;;;;;;;;;;4988305;28;20065;-75
2023/06/23 08:43:29;;;;;;;11.48;6.85;;;;;;;;;;4987892;28;20069;-75
2023/06/23 08:46:02;;;;;;;13.70;8.40;;;;;;;;;;4970442;28;20046;-75
2023/06/23 08:48:32;;;;;;;11.43;8.05;;;;;;;;;;4970348;28;20061;-77
2023/06/23 08:51:03;;;;;;;14.95;8.07;;;;;;;;;;4987903;28;20054;-75
2023/06/23 08:53:34;;;;;;;20.60;8.98;;;;;;;;;;4987225;28;21078;-75
2023/06/23 08:56:06;;;;;;;15.25;8.55;;;;;;;;;;4969552;28;20058;-74
2023/06/23 08:58:36;;;;;;;20.58;11.98;;;;;;;;;;4987288;28;20051;-75
2023/06/23 09:01:06;;;;;;;19.48;10.68;;;;;;;;;;4987654;28;20046;-76
2023/06/23 09:03:37;;;;;;;22.27;9.93;;;;;;;;;;4970525;28;20046;-76
2023/06/23 09:06:09;;;;;;;21.98;11.43;;;;;;;;;;4987209;28;20449;-74
2023/06/23 09:08:40;;;;;;;16.13;8.57;;;;;;;;;;4971215;28;20046;-75
2023/06/23 09:11:10;;;;;;;17.02;9.07;;;;;;;;;;4987534;28;20057;-75
2023/06/23 09:13:45;;;;;;;13.02;6.60;;;;;;;;;;4987201;28;20073;-74
2023/06/23 09:16:16;;;;;;;14.68;8.38;;;;;;;;;;4987047;28;20053;-75
2023/06/23 09:18:48;;;;;;;11.95;6.70;;;;;;;;;;4987596;28;20042;-74
2023/06/23 09:21:20;;;;;;;12.10;6.03;;;;;;;;;;4986529;28;20046;-76
2023/06/23 09:24:03;;;;;;;12.88;6.53;;;;;;;;;;4987185;28;20046;-75
2023/06/23 09:26:51;;;;;;;14.23;6.32;;;;;;;;;;4987468;28;20046;-75
2023/06/23 09:29:22;;;;;;;;;;;;;;;;;;4987828;28;20057;-75
2023/06/23 09:31:55;;;;;;;9.15;5.05;;;;;;;;;;4986543;28;19933;-76
2023/06/23 09:34:30;;;;;;;8.80;5.13;;;;;;;;;;4986597;28;20401;-75
2023/06/23 09:37:13;;;;;;;13.52;4.97;;;;;;;;;;4986798;28;20049;-75
2023/06/23 09:39:50;;;;;;;9.90;4.90;;;;;;;;;;4987004;28;20046;-75
2023/06/23 09:42:24;;;;;;;13.18;5.50;;;;;;;;;;4986237;28;20053;-75
2023/06/23 09:44:55;;;;;;;10.55;4.90;;;;;;;;;;4986513;28;20061;-78
2023/06/23 09:47:27;;;;;;;11.73;4.85;;;;;;;;;;4986682;28;20498;-77
2023/06/23 09:49:59;;;;;;;11.68;5.93;;;;;;;;;;4986629;28;20061;-75
2023/06/23 09:52:29;;;;;;;9.77;5.15;;;;;;;;;;4986332;28;20053;-74
2023/06/23 09:55:06;;;;;;;11.32;5.55;;;;;;;;;;4986522;28;20070;-76
2023/06/23 09:57:38;;;;;;;10.93;5.93;;;;;;;;;;4968294;28;20054;-75
2023/06/23 10:00:10;;;;;;;9.43;5.18;;;;;;;;;;4987077;28;20113;-77
2023/06/23 10:02:40;;;;;;;10.35;5.25;;;;;;;;;;4986209;28;20061;-75
2023/06/23 10:05:11;;;;;;;13.40;5.57;;;;;;;;;;4986630;28;20050;-76
2023/06/23 10:07:43;;;;;;;9.15;5.82;;;;;;;;;;4986653;28;20422;-75
2023/06/23 10:10:16;;;;;;;15.25;5.93;;;;;;;;;;4986509;28;20682;-76
2023/06/23 10:12:51;;;;;;;9.68;6.20;;;;;;;;;;4968385;28;20065;-75
2023/06/23 10:15:21;;;;;;;18.70;9.52;;;;;;;;;;4983892;28;20058;-76
2023/06/23 10:17:51;;;;;;;12.45;7.03;;;;;;;;;;4966855;28;20042;-77
2023/06/23 10:20:22;;;;;;;14.55;8.05;;;;;;;;;;4966940;28;20391;-75
2023/06/23 10:22:56;;;;;;;15.40;7.18;;;;;;;;;;4966671;28;20051;-75
2023/06/23 10:25:28;;;;;;;15.13;7.15;;;;;;;;;;4966944;28;20055;-76
2023/06/23 10:28:04;;;;;;;13.50;7.40;;;;;;;;;;4967000;28;20046;-75
2023/06/23 10:30:36;;;;;;;15.85;7.32;;;;;;;;;;4965367;28;20054;-75
2023/06/23 10:33:14;;;;;;;14.63;7.00;;;;;;;;;;4967233;28;20050;-76
2023/06/23 10:35:47;;;;;;;14.43;7.35;;;;;;;;;;4965230;28;20055;-75
2023/06/23 10:38:23;;;;;;;16.00;7.32;;;;;;;;;;4966965;28;20057;-76
2023/06/23 10:41:00;;;;;;;16.17;7.00;;;;;;;;;;4966606;28;20043;-75
2023/06/23 10:43:33;;;;;;;21.35;7.82;;;;;;;;;;4966114;28;20054;-75
2023/06/23 10:46:04;;;;;;;13.75;8.15;;;;;;;;;;4966544;28;20051;-75
2023/06/23 10:48:37;;;;;;;15.18;6.40;;;;;;;;;;4966731;28;20540;-75
2023/06/23 10:51:10;;;;;;;19.02;7.43;;;;;;;;;;4966692;28;20529;-75
2023/06/23 10:54:02;;;;;;;14.63;7.50;;;;;;;;;;4966432;28;20414;-75
2023/06/23 10:56:43;;;;;;;10.05;5.30;;;;;;;;;;4965054;28;20058;-75
2023/06/23 10:59:32;;;;;;;9.23;5.60;;;;;;;;;;4966305;28;20046;-74
2023/06/23 11:02:04;;;;;;;12.32;5.95;;;;;;;;;;4965710;28;20055;-76
2023/06/23 11:04:50;;;;;;;10.32;5.15;;;;;;;;;;4968891;28;20493;-76
2023/06/23 11:07:20;;;;;;;12.73;5.68;;;;;;;;;;4969211;28;20077;-76
2023/06/23 11:10:01;;;;;;;19.40;7.60;;;;;;;;;;4969142;28;20413;-74
2023/06/23 11:12:34;;;;;;;11.75;6.57;;;;;;;;;;4969095;28;20047;-75
2023/06/23 11:15:10;;;;;;;12.40;6.35;;;;;;;;;;4969206;28;20070;-75
2023/06/23 11:17:44;;;;;;;11.25;6.15;;;;;;;;;;4970833;28;20478;-75
2023/06/23 11:20:24;;;;;;;10.23;6.00;;;;;;;;;;4970100;28;20406;-74
2023/06/23 11:23:01;;;;;;;14.10;6.65;;;;;;;;;;4969747;28;20549;-75
2023/06/23 11:25:33;;;;;;;10.73;5.53;;;;;;;;;;4970216;28;20042;-76
2023/06/23 11:28:36;;;;;;;9.40;5.55;;;;;;;;;;4970264;28;20042;-75
2023/06/23 11:31:13;;;;;;;16.00;8.02;;;;;;;;;;4969715;28;20051;-75
2023/06/23 11:33:46;;;;;;;15.10;6.95;;;;;;;;;;4970467;28;20050;-75
2023/06/23 11:36:19;;;;;;;11.32;6.28;;;;;;;;;;4969807;28;20039;-75
2023/06/23 11:38:50;;;;;;;9.35;6.05;;;;;;;;;;4970186;28;20746;-74
2023/06/23 11:41:31;;;;;;;11.85;5.75;;;;;;;;;;4969540;28;20150;-75
2023/06/23 11:44:04;;;;;;;12.52;6.55;;;;;;;;;;4969541;28;20051;-76
2023/06/23 11:46:34;;;;;;;12.13;6.90;;;;;;;;;;4968250;28;20433;-76
2023/06/23 11:49:12;;;;;;;21.92;6.72;;;;;;;;;;4969590;28;20434;-76
2023/06/23 11:51:43;;;;;;;23.88;7.15;;;;;;;;;;4969419;28;20054;-75
2023/06/23 11:54:15;;;;;;;21.75;6.95;;;;;;;;;;4968128;28;20074;-74
2023/06/23 11:56:45;;;;;;;9.60;5.53;;;;;;;;;;4969131;28;20058;-75
2023/06/23 11:59:15;;;;;;;8.93;4.93;;;;;;;;;;4969619;28;20054;-75
2023/06/23 12:01:46;;;;;;;10.27;5.40;;;;;;;;;;4969263;28;20050;-75
2023/06/23 12:04:22;;;;;;;9.45;5.82;;;;;;;;;;4969948;28;20043;-75
2023/06/23 12:06:52;;;;;;;11.05;5.75;;;;;;;;;;4969857;28;20525;-75
2023/06/23 12:09:22;;;;;;;10.10;5.40;;;;;;;;;;4966912;28;20062;-77
2023/06/23 12:11:55;;;;;;;8.57;5.63;;;;;;;;;;4967744;28;20043;-75
2023/06/23 12:14:34;;;;;;;9.60;5.45;;;;;;;;;;4968027;28;20043;-75
2023/06/23 12:17:07;;;;;;;15.30;8.07;;;;;;;;;;4968892;28;20069;-76
2023/06/23 12:19:38;;;;;;;14.77;7.43;;;;;;;;;;4969205;28;20533;-75
2023/06/23 12:22:17;;;;;;;9.82;5.70;;;;;;;;;;4968796;28;20422;-74
2023/06/23 12:24:49;;;;;;;10.82;5.55;;;;;;;;;;4969729;28;20398;-77
2023/06/23 12:27:19;;;;;;;8.25;3.47;;;;;;;;;;4968680;28;20054;-75
2023/06/23 12:29:49;;;;;;;6.95;4.38;;;;;;;;;;4969163;28;20054;-75
2023/06/23 12:32:20;;;;;;;9.68;4.93;;;;;;;;;;4951632;28;20061;-74
2023/06/23 12:34:57;;;;;;;9.50;5.18;;;;;;;;;;4968418;28;20414;-75
2023/06/23 12:37:27;;;;;;;11.68;7.90;;;;;;;;;;4967077;28;20066;-75
2023/06/23 12:39:57;;;;;;;11.77;4.82;;;;;;;;;;4968324;28;20698;-75
2023/06/23 12:42:29;;;;;;;8.48;4.45;;;;;;;;;;4968311;28;20135;-75
2023/06/23 12:45:00;;;;;;;5.78;3.67;;;;;;;;;;4968525;28;20050;-74
2023/06/23 12:47:31;;;;;;;6.05;3.85;;;;;;;;;;4968665;28;20115;-75
2023/06/23 12:50:10;;;;;;;6.65;3.78;;;;;;;;;;4968167;28;20051;-82
2023/06/23 12:52:50;;;;;;;10.95;4.30;;;;;;;;;;4968258;28;20047;-75
2023/06/23 12:55:21;;;;;;;10.05;4.30;;;;;;;;;;4968535;28;20827;-76
2023/06/23 12:57:52;;;;;;;6.35;3.92;;;;;;;;;;4968332;28;20074;-75
2023/06/23 13:00:22;;;;;;;11.50;4.70;;;;;;;;;;4968327;28;20070;-77
2023/06/23 13:02:53;;;;;;;6.97;4.10;;;;;;;;;;4967609;28;20050;-74
2023/06/23 13:05:26;;;;;;;9.88;3.83;;;;;;;;;;4968180;28;20517;-74
2023/06/23 13:07:57;;;;;;;9.20;5.40;;;;;;;;;;4968167;28;20046;-76
2023/06/23 13:10:27;;;;;;;6.93;4.32;;;;;;;;;;4968288;28;20051;-75
2023/06/23 13:12:58;;;;;;;10.60;5.30;;;;;;;;;;4967895;28;20057;-75
2023/06/23 13:15:31;;;;;;;7.20;4.53;;;;;;;;;;4967940;28;20059;-75
2023/06/23 13:18:05;;;;;;;6.72;3.58;;;;;;;;;;4967715;28;20057;-75
2023/06/23 13:20:35;;;;;;;5.57;3.45;;;;;;;;;;4968099;28;20050;-75
2023/06/23 13:23:07;;;;;;;7.05;4.22;;;;;;;;;;4967702;28;20057;-78
2023/06/23 13:25:39;;;;;;;5.55;4.00;;;;;;;;;;4967171;28;20057;-75
2023/06/23 13:28:09;;;;;;;9.15;3.08;;;;;;;;;;4967876;28;20054;-76
2023/06/23 13:30:39;;;;;;;10.85;4.85;;;;;;;;;;4965642;28;20422;-75
2023/06/23 13:33:14;;;;;;;4.50;2.80;;;;;;;;;;4967843;28;20061;-77
2023/06/23 13:35:45;;;;;;;5.10;3.50;;;;;;;;;;4967569;28;20066;-75
2023/06/23 13:38:15;;;;;;;4.57;3.75;;;;;;;;;;4967610;28;20057;-75
2023/06/23 13:40:45;;;;;;;7.53;3.42;;;;;;;;;;4967511;28;20058;-76
2023/06/23 13:43:17;;;;;;;8.40;3.80;;;;;;;;;;4967454;28;20466;-74
2023/06/23 13:45:49;;;;;;;6.47;3.92;;;;;;;;;;4967963;28;20053;-75
2023/06/23 13:48:19;;;;;;;8.73;4.00;;;;;;;;;;4966080;28;20050;-76
2023/06/23 13:50:50;;;;;;;6.93;4.28;;;;;;;;;;4967130;28;20046;-76
2023/06/23 13:53:20;;;;;;;7.93;3.70;;;;;;;;;;4967363;28;20050;-75
2023/06/23 13:55:52;;;;;;;8.85;4.85;;;;;;;;;;4967363;28;20055;-75
2023/06/23 13:58:22;;;;;;;6.18;4.53;;;;;;;;;;4965770;28;20049;-79
2023/06/23 14:00:53;;;;;;;5.68;3.80;;;;;;;;;;4967073;28;20050;-76
2023/06/23 14:03:24;;;;;;;6.05;3.25;;;;;;;;;;4967114;28;20054;-76
2023/06/23 14:05:55;;;;;;;4.93;3.45;;;;;;;;;;4966176;28;20065;-76
2023/06/23 14:08:27;;;;;;;6.38;3.53;;;;;;;;;;4967232;28;20050;-76
2023/06/23 14:10:57;;;;;;;3.83;3.05;;;;;;;;;;4966538;28;20506;-76
2023/06/23 14:13:27;;;;;;;4.75;3.38;;;;;;;;;;4966163;28;20066;-76
2023/06/23 14:15:57;;;;;;;5.88;3.13;;;;;;;;;;4966853;28;20077;-76
2023/06/23 14:18:31;;;;;;;4.78;2.70;;;;;;;;;;4966580;28;20058;-74
2023/06/23 14:21:01;;;;;;;7.05;4.10;;;;;;;;;;4966635;28;20414;-75
2023/06/23 14:23:31;;;;;;;5.63;3.17;;;;;;;;;;4966144;28;20050;-75
2023/06/23 14:26:04;;;;;;;6.60;3.10;;;;;;;;;;4966812;28;20054;-75
2023/06/23 14:28:35;;;;;;;5.75;3.08;;;;;;;;;;4967173;28;20522;-76
2023/06/23 14:31:07;;;;;;;9.02;4.55;;;;;;;;;;4966830;28;20059;-76
2023/06/23 14:33:38;;;;;;;5.07;3.50;;;;;;;;;;4967134;28;20043;-75
2023/06/23 14:36:08;;;;;;;5.53;3.75;;;;;;;;;;4966294;28;20054;-77
2023/06/23 14:38:39;;;;;;;5.57;3.92;;;;;;;;;;4966188;28;20041;-75
2023/06/23 14:41:09;;;;;;;7.18;5.35;;;;;;;;;;4966440;28;20409;-76
2023/06/23 14:43:39;;;;;;;6.25;3.67;;;;;;;;;;4966046;28;20054;-76
2023/06/23 14:46:10;;;;;;;6.65;3.85;;;;;;;;;;4966183;28;20529;-77
2023/06/23 14:48:42;;;;;;;8.45;4.95;;;;;;;;;;4966684;28;20421;-77
2023/06/23 14:51:14;;;;;;;6.97;4.32;;;;;;;;;;4966785;28;20046;-77
2023/06/23 14:53:46;;;;;;;7.88;4.00;;;;;;;;;;4966801;28;20055;-78
2023/06/23 14:56:17;;;;;;;7.45;5.07;;;;;;;;;;4965315;28;20051;-77
2023/06/23 14:58:48;;;;;;;9.43;5.68;;;;;;;;;;4965510;28;20497;-76
2023/06/23 15:01:17;;;;;;;7.38;5.20;;;;;;;;;;4966290;28;20437;-76
2023/06/23 15:03:48;;;;;;;7.50;5.25;;;;;;;;;;4965817;28;20114;-77
2023/06/23 15:06:19;;;;;;;5.97;4.10;;;;;;;;;;4964304;28;20055;-76
2023/06/23 15:08:51;;;;;;;8.38;5.38;;;;;;;;;;4966574;28;20058;-76
2023/06/23 15:11:22;;;;;;;5.82;4.40;;;;;;;;;;4966887;28;20074;-75
2023/06/23 15:13:52;;;;;;;6.82;4.20;;;;;;;;;;4964674;28;20051;-75
2023/06/23 15:16:23;;;;;;;7.25;4.82;;;;;;;;;;4965837;28;20046;-76
2023/06/23 15:18:54;;;;;;;8.48;4.57;;;;;;;;;;4966324;28;20055;-76